Time;durP1;ratioP1;P1;durP2;ratioP2;P2;SDS_P1;SDS_P2;PMS_P1;PMS_P2;Temp;Humidity;BMP_temperature;BMP_pressure;BME280_temperature;BME280_humidity;BME280_pressure;Samples;Min_cycle;Max_cycle;Signal;HPM_P1;HPM_P2
2022/01/14 00:04:55;;;;;;;23.60;12.47;;;;;;;4.94;100.00;101629.84;3602404;81;98211;-94
2022/01/14 00:09:56;;;;;;;24.53;12.37;;;;;;;4.93;100.00;101624.14;3603409;80;99473;-94
2022/01/14 00:15:12;;;;;;;23.80;11.77;;;;;;;4.95;100.00;101622.72;3593217;80;99074;-96
2022/01/14 00:20:02;;;;;;;24.90;11.85;;;;;;;4.95;100.00;101600.89;3541532;80;98699;-94
2022/01/14 00:35:25;;;;;;;26.05;12.73;;;;;;;4.97;100.00;101595.14;3585722;80;98593;-94
2022/01/14 00:40:26;;;;;;;27.67;12.17;;;;;;;4.97;100.00;101602.75;3578883;80;99061;-93
2022/01/14 00:45:28;;;;;;;31.30;11.27;;;;;;;4.96;100.00;101603.08;3574508;80;98172;-95
2022/01/14 00:50:29;;;;;;;27.60;12.60;;;;;;;4.94;100.00;101597.93;3579521;80;98528;-96
2022/01/14 00:55:44;;;;;;;30.67;13.37;;;;;;;4.93;100.00;101599.05;3582851;80;97988;-96
2022/01/14 01:00:35;;;;;;;28.42;12.18;;;;;;;4.97;100.00;101594.56;3543782;80;98883;-95
2022/01/14 01:05:36;;;;;;;25.97;12.25;;;;;;;4.96;100.00;101593.53;3581088;80;99505;-92
2022/01/14 01:10:47;;;;;;;27.40;11.20;;;;;;;4.97;100.00;101591.83;3580437;80;98897;-95
2022/01/14 01:15:41;;;;;;;25.17;12.15;;;;;;;4.97;100.00;101588.31;3599438;80;98322;-94
2022/01/14 01:20:42;;;;;;;26.20;11.23;;;;;;;4.98;100.00;101589.37;3622521;80;99311;-94
2022/01/14 01:25:48;;;;;;;34.33;12.00;;;;;;;4.98;100.00;101582.55;3637753;80;98910;-94
2022/01/14 01:30:52;;;;;;;22.17;12.07;;;;;;;4.99;100.00;101581.44;3637619;79;98866;-95
2022/01/14 01:35:51;;;;;;;24.70;11.40;;;;;;;5.00;100.00;101583.04;3631223;80;98208;-96
2022/01/14 01:40:53;;;;;;;30.13;11.70;;;;;;;4.98;100.00;101581.19;3645310;79;99005;-96
2022/01/14 01:45:55;;;;;;;23.97;10.90;;;;;;;4.97;100.00;101566.49;3641199;80;98264;-96
2022/01/14 01:50:58;;;;;;;24.80;11.25;;;;;;;4.97;100.00;101548.18;3627190;80;104123;-96
2022/01/14 01:56:00;;;;;;;27.07;11.50;;;;;;;5.00;100.00;101535.84;3645743;79;31778;-95
2022/01/14 02:01:04;;;;;;;26.62;11.28;;;;;;;5.01;100.00;101525.98;3625051;80;98991;-96
2022/01/14 02:06:06;;;;;;;24.37;10.03;;;;;;;5.01;100.00;101523.26;3637433;79;99076;-94
2022/01/14 02:11:07;;;;;;;25.05;12.30;;;;;;;5.01;100.00;101498.70;3648227;79;99006;-96
2022/01/14 02:26:28;;;;;;;23.52;11.03;;;;;;;5.04;100.00;101490.45;3638159;79;31454;-96
2022/01/14 02:31:28;;;;;;;26.10;9.63;;;;;;;5.02;100.00;101473.03;3612398;80;99217;-94
2022/01/14 02:36:34;;;;;;;19.63;9.27;;;;;;;5.04;100.00;101483.09;3629723;79;97844;-93
2022/01/14 02:41:36;;;;;;;23.70;9.53;;;;;;;5.04;100.00;101462.62;3617411;80;98959;-93
2022/01/14 02:46:43;;;;;;;22.22;10.03;;;;;;;5.04;100.00;101464.53;3625790;80;98824;-92
2022/01/14 02:51:43;;;;;;;25.00;9.00;;;;;;;5.04;100.00;101474.91;3613188;80;99041;-93
2022/01/14 02:56:49;;;;;;;29.07;10.17;;;;;;;5.04;100.00;101472.17;3631624;79;35381;-95
2022/01/14 03:01:50;;;;;;;19.90;9.50;;;;;;;5.06;100.00;101461.73;3633538;79;98739;-95
2022/01/14 03:06:51;;;;;;;24.53;9.03;;;;;;;5.05;100.00;101455.23;3627621;79;97930;-93
2022/01/14 03:11:55;;;;;;;20.13;9.47;;;;;;;5.06;100.00;101442.64;3622761;79;98985;-95
2022/01/14 03:16:59;;;;;;;22.00;8.98;;;;;;;5.08;100.00;101443.70;3632468;80;99342;-93
2022/01/14 03:22:17;;;;;;;20.95;9.30;;;;;;;5.08;100.00;101430.84;3644521;79;98459;-95
2022/01/14 03:27:08;;;;;;;24.00;9.07;;;;;;;5.05;100.00;101430.67;3646844;80;98018;-96
2022/01/14 03:32:09;;;;;;;26.97;10.90;;;;;;;5.05;100.00;101418.39;3637692;80;98389;-95
2022/01/14 03:37:10;;;;;;;23.73;8.47;;;;;;;5.06;100.00;101409.90;3648002;79;98886;-96
2022/01/14 03:42:11;;;;;;;26.70;8.90;;;;;;;5.06;100.00;101417.27;3634970;80;98905;-94
2022/01/14 03:47:11;;;;;;;24.23;8.17;;;;;;;5.03;100.00;101417.91;3648040;79;98967;-94
2022/01/14 03:52:13;;;;;;;16.63;8.37;;;;;;;5.04;100.00;101405.88;3635473;79;98310;-93
2022/01/14 03:57:14;;;;;;;19.67;7.63;;;;;;;5.01;100.00;101403.77;3634765;79;99285;-93
2022/01/14 04:02:15;;;;;;;17.70;7.80;;;;;;;4.98;100.00;101416.69;3632885;79;98364;-93
2022/01/14 04:07:16;;;;;;;25.03;9.30;;;;;;;4.98;100.00;101415.33;3651190;79;97933;-95
2022/01/14 04:12:30;;;;;;;16.33;7.43;;;;;;;4.99;100.00;101417.75;3630938;80;98320;-95
2022/01/14 04:17:20;;;;;;;28.27;8.47;;;;;;;5.01;100.00;101414.13;3628061;80;98931;-96
2022/01/14 04:22:20;;;;;;;21.80;7.90;;;;;;;4.99;100.00;101401.38;3626667;80;98864;-96
2022/01/14 04:27:21;;;;;;;18.27;8.13;;;;;;;5.00;100.00;101396.16;3638348;80;98827;-96
2022/01/14 04:32:22;;;;;;;20.15;7.67;;;;;;;5.00;100.00;101384.44;3649315;79;98583;-95
2022/01/14 04:37:23;;;;;;;21.30;8.17;;;;;;;5.00;100.00;101385.25;3654978;80;98606;-94
2022/01/14 04:42:25;;;;;;;23.50;8.13;;;;;;;5.01;100.00;101374.58;3645116;79;98086;-95
2022/01/14 04:47:44;;;;;;;22.35;8.58;;;;;;;5.04;100.00;101369.05;3639542;80;98011;-94
2022/01/14 04:52:32;;;;;;;20.20;7.67;;;;;;;5.03;100.00;101347.77;3622927;79;98730;-93
2022/01/14 04:57:32;;;;;;;17.33;7.60;;;;;;;5.03;100.00;101336.86;3629048;80;98830;-96
2022/01/14 05:02:33;;;;;;;19.10;8.77;;;;;;;5.04;100.00;101328.13;3633152;80;98227;-93
2022/01/14 05:07:36;;;;;;;16.83;7.27;;;;;;;5.04;100.00;101333.58;3657077;80;98654;-95
2022/01/14 05:12:38;;;;;;;18.90;7.97;;;;;;;5.03;100.00;101321.85;3646305;80;98622;-94
2022/01/14 05:17:39;;;;;;;22.82;8.45;;;;;;;5.02;100.00;101322.19;3632246;79;98831;-96
2022/01/14 05:22:40;;;;;;;17.43;7.27;;;;;;;5.01;100.00;101317.28;3606585;81;99270;-96
2022/01/14 05:27:44;;;;;;;17.70;7.77;;;;;;;4.99;100.00;101334.55;3606646;80;99447;-93
2022/01/14 05:32:49;;;;;;;22.73;8.50;;;;;;;5.02;100.00;101334.47;3599607;80;98377;-95
2022/01/14 05:37:51;;;;;;;44.35;19.77;;;;;;;5.03;100.00;101331.98;3618149;80;98510;-96
2022/01/14 05:42:52;;;;;;;21.93;8.63;;;;;;;5.03;100.00;101314.25;3612587;80;98805;-90
2022/01/14 05:47:53;;;;;;;27.60;10.73;;;;;;;4.99;100.00;101316.81;3614244;80;98915;-91
2022/01/14 05:52:54;;;;;;;35.77;13.50;;;;;;;4.99;100.00;101308.63;3620558;80;98947;-94
2022/01/14 05:57:54;;;;;;;21.23;7.97;;;;;;;4.98;100.00;101300.75;3622046;80;99052;-95
2022/01/14 06:02:55;;;;;;;22.30;9.43;;;;;;;4.98;100.00;101288.48;3613342;80;99279;-95
2022/01/14 06:07:56;;;;;;;36.93;14.67;;;;;;;4.97;100.00;101285.52;3604444;80;32427;-96
2022/01/14 06:12:57;;;;;;;22.93;9.97;;;;;;;4.93;100.00;101282.62;3612906;80;99657;-91
2022/01/14 06:17:58;;;;;;;22.17;8.83;;;;;;;4.93;100.00;101278.53;3633166;80;98429;-96
2022/01/14 06:22:59;;;;;;;20.82;9.15;;;;;;;4.92;100.00;101276.12;3602379;80;98728;-96
2022/01/14 06:28:00;;;;;;;22.20;9.55;;;;;;;4.93;100.00;101276.36;3614450;80;98909;-94
2022/01/14 06:33:01;;;;;;;22.33;9.40;;;;;;;4.93;100.00;101279.90;3599823;81;98935;-93
2022/01/14 06:38:02;;;;;;;21.90;9.57;;;;;;;4.97;100.00;101256.87;3620501;80;25704;-95
2022/01/14 06:43:06;;;;;;;23.70;9.23;;;;;;;4.98;100.00;101248.92;3592976;80;98718;-93
2022/01/14 06:48:06;;;;;;;17.12;8.30;;;;;;;5.01;100.00;101234.08;3616102;80;98866;-92
2022/01/14 06:53:07;;;;;;;23.67;10.63;;;;;;;5.04;100.00;101223.09;3590576;80;98321;-92
2022/01/14 06:58:08;;;;;;;23.10;11.27;;;;;;;5.06;100.00;101231.75;3600966;80;98272;-93
2022/01/14 07:03:10;;;;;;;22.00;10.37;;;;;;;5.08;100.00;101216.66;3610425;80;98845;-96
2022/01/14 07:08:10;;;;;;;27.73;10.73;;;;;;;5.09;100.00;101224.30;3603773;80;26253;-93
2022/01/14 07:13:12;;;;;;;23.83;10.87;;;;;;;5.13;100.00;101215.72;3598497;80;99451;-93
2022/01/14 07:18:12;;;;;;;25.67;11.77;;;;;;;5.15;100.00;101206.64;3604815;80;99118;-90
2022/01/14 07:23:13;;;;;;;23.92;12.00;;;;;;;5.16;100.00;101199.50;3607248;80;99066;-94
2022/01/14 07:28:14;;;;;;;25.13;12.50;;;;;;;5.19;100.00;101204.88;3604265;80;99049;-96
2022/01/14 07:33:16;;;;;;;23.83;9.80;;;;;;;5.21;100.00;101208.89;3612691;80;98617;-95
2022/01/14 07:38:17;;;;;;;25.90;10.48;;;;;;;5.23;100.00;101210.72;3598429;80;98841;-95
2022/01/14 07:43:20;;;;;;;23.57;10.43;;;;;;;5.27;100.00;101229.98;3601291;80;98053;-95
2022/01/14 07:48:21;;;;;;;23.97;11.17;;;;;;;5.30;100.00;101226.04;3608080;80;98777;-92
2022/01/14 07:53:22;;;;;;;25.70;10.13;;;;;;;5.32;100.00;101227.91;3581275;80;99041;-95
2022/01/14 07:58:24;;;;;;;23.57;11.10;;;;;;;5.35;100.00;101223.15;3567195;80;99065;-96
2022/01/14 08:03:25;;;;;;;23.83;10.97;;;;;;;5.38;100.00;101208.88;3600783;81;98181;-96
2022/01/14 08:08:28;;;;;;;28.33;12.47;;;;;;;5.40;100.00;101203.88;3594321;80;98593;-95
2022/01/14 08:13:29;;;;;;;23.23;11.80;;;;;;;5.44;100.00;101214.95;3531897;82;99282;-96
2022/01/14 08:18:30;;;;;;;28.77;11.33;;;;;;;5.47;100.00;101213.77;3630207;80;99054;-92
2022/01/14 08:23:31;;;;;;;27.10;13.75;;;;;;;5.49;100.00;101215.59;3657999;80;99072;-93
2022/01/14 08:28:32;;;;;;;29.10;12.40;;;;;;;5.51;100.00;101217.43;3651537;79;98605;-95
2022/01/14 08:33:33;;;;;;;30.27;13.70;;;;;;;5.52;100.00;101230.53;3653829;80;99129;-94
2022/01/14 08:38:34;;;;;;;22.60;12.13;;;;;;;5.55;100.00;101224.41;3640999;79;98539;-96
2022/01/14 08:43:36;;;;;;;24.63;11.97;;;;;;;5.57;100.00;101213.40;3644829;80;98149;-95
2022/01/14 08:48:37;;;;;;;21.45;12.05;;;;;;;5.58;100.00;101204.11;3631465;80;99217;-94
2022/01/14 08:53:38;;;;;;;23.57;12.07;;;;;;;5.61;100.00;101210.81;3639635;79;99582;-96
2022/01/14 08:58:40;;;;;;;22.07;10.80;;;;;;;5.62;100.00;101204.25;3629984;80;98992;-96
2022/01/14 09:03:41;;;;;;;28.47;11.97;;;;;;;5.63;100.00;101208.00;3643506;80;98252;-94
2022/01/14 09:08:41;;;;;;;22.70;10.97;;;;;;;5.64;100.00;101205.53;3644861;79;98994;-95
2022/01/14 09:13:44;;;;;;;23.83;11.33;;;;;;;5.66;100.00;101207.91;3647699;80;98828;-96
2022/01/14 09:18:44;;;;;;;20.15;10.85;;;;;;;5.66;100.00;101190.98;3624060;80;99125;-94
2022/01/14 09:24:05;;;;;;;20.60;10.83;;;;;;;5.67;100.00;101204.08;3624444;80;99016;-96
2022/01/14 09:29:08;;;;;;;20.88;10.45;;;;;;;5.64;100.00;101204.17;3619447;80;99604;-95
2022/01/14 09:34:11;;;;;;;19.42;10.00;;;;;;;5.66;100.00;101207.36;3628636;80;99474;-94
2022/01/14 09:39:12;;;;;;;22.95;9.75;;;;;;;5.65;100.00;101210.41;3640854;80;99035;-94
2022/01/14 09:44:18;;;;;;;23.77;10.60;;;;;;;5.64;100.00;101206.09;3634049;80;26230;-96
2022/01/14 09:49:20;;;;;;;21.45;10.10;;;;;;;5.66;100.00;101200.53;3630579;80;98884;-96
2022/01/14 09:54:21;;;;;;;19.87;9.50;;;;;;;5.68;100.00;101178.38;3633478;80;98981;-96
2022/01/14 09:59:22;;;;;;;21.53;9.83;;;;;;;5.68;100.00;101177.79;3618480;80;98910;-96
2022/01/14 10:04:23;;;;;;;19.10;9.80;;;;;;;5.72;100.00;101175.23;3621987;80;98851;-96
2022/01/14 10:09:35;;;;;;;20.10;8.90;;;;;;;5.71;100.00;101166.23;3631563;80;99303;-96
2022/01/14 10:14:40;;;;;;;16.37;8.88;;;;;;;5.74;100.00;101152.48;3629832;80;32376;-96
2022/01/14 10:19:43;;;;;;;21.42;8.60;;;;;;;5.74;100.00;101154.63;3647612;80;98510;-93
2022/01/14 10:24:55;;;;;;;21.12;9.33;;;;;;;5.75;100.00;101147.25;3641595;79;97902;-96
2022/01/14 10:30:28;;;;;;;20.70;8.88;;;;;;;5.79;100.00;101157.77;3630160;80;98500;-95
2022/01/14 10:35:29;;;;;;;21.37;8.48;;;;;;;5.79;100.00;101130.45;3657872;80;98864;-95
2022/01/14 10:40:38;;;;;;;22.50;7.67;;;;;;;5.81;100.00;101111.83;3640557;80;99021;-96
2022/01/14 10:45:39;;;;;;;17.07;8.48;;;;;;;5.84;100.00;101124.26;3643918;80;98847;-96
2022/01/14 10:50:48;;;;;;;15.97;7.53;;;;;;;5.87;100.00;101095.48;3647465;80;99001;-94
2022/01/14 10:56:05;;;;;;;13.40;6.22;;;;;;;5.89;100.00;101132.27;3621650;79;99085;-94
2022/01/14 11:01:15;;;;;;;15.05;6.55;;;;;;;5.91;100.00;101121.84;3638657;80;99098;-93
2022/01/14 11:06:38;;;;;;;13.22;6.22;;;;;;;5.91;100.00;101119.66;3649655;80;99292;-96
2022/01/14 11:11:47;;;;;;;12.28;5.10;;;;;;;5.90;100.00;101123.52;3637712;79;98821;-96
2022/01/14 11:16:48;;;;;;;14.47;6.17;;;;;;;5.90;100.00;101120.21;3632792;80;98953;-93
2022/01/14 11:27:14;;;;;;;14.53;6.33;;;;;;;5.92;100.00;101112.51;3581587;81;98128;-94
2022/01/14 11:32:15;;;;;;;23.75;12.13;;;;;;;5.94;100.00;101106.14;3559139;81;98413;-92
2022/01/14 11:37:33;;;;;;;21.73;11.07;;;;;;;5.94;100.00;101123.89;3556146;82;98913;-91
2022/01/14 11:42:50;;;;;;;12.75;6.12;;;;;;;5.94;100.00;101125.27;3550933;81;98838;-91
2022/01/14 11:47:59;;;;;;;18.92;10.15;;;;;;;5.94;100.00;101123.11;3569403;81;99463;-91
2022/01/14 11:52:59;;;;;;;13.45;6.37;;;;;;;5.96;100.00;101124.94;3553681;81;98499;-93
2022/01/14 11:58:12;;;;;;;12.33;6.20;;;;;;;5.96;100.00;101120.84;3582158;81;98656;-92
2022/01/14 12:03:26;;;;;;;13.70;4.55;;;;;;;5.98;100.00;101122.67;3569674;82;101633;-93
2022/01/14 12:08:30;;;;;;;10.33;5.60;;;;;;;6.02;100.00;101124.98;3572097;81;99045;-90
2022/01/14 12:14:00;;;;;;;10.70;5.30;;;;;;;6.04;100.00;101129.55;3543861;82;98825;-91
2022/01/14 12:19:05;;;;;;;9.73;5.55;;;;;;;6.07;100.00;101123.44;3592048;80;98676;-92
2022/01/14 12:24:30;;;;;;;15.80;5.53;;;;;;;6.10;100.00;101124.94;3623763;79;98718;-91
2022/01/14 12:29:42;;;;;;;9.50;5.35;;;;;;;6.13;100.00;101117.45;3636562;79;98929;-90
2022/01/14 12:35:10;;;;;;;9.60;4.67;;;;;;;6.15;100.00;101119.84;3630482;80;97810;-91
2022/01/14 12:40:20;;;;;;;11.60;4.60;;;;;;;6.16;100.00;101097.66;3630540;79;98672;-91
2022/01/14 12:46:24;;;;;;;9.65;4.20;;;;;;;6.18;100.00;101104.97;3631369;80;99295;-93
2022/01/14 12:51:21;;;;;;;10.80;4.83;;;;;;;6.19;100.00;101095.64;3640012;79;99071;-92
2022/01/14 12:56:29;;;;;;;10.15;5.65;;;;;;;6.20;100.00;101099.97;3629017;79;27525;-93
2022/01/14 13:01:35;;;;;;;11.53;5.00;;;;;;;6.21;100.00;101098.05;3621331;79;99363;-92
2022/01/14 13:06:53;;;;;;;11.50;5.63;;;;;;;6.23;100.00;101087.57;3623283;80;98469;-91
2022/01/14 13:12:06;;;;;;;8.03;4.08;;;;;;;6.26;100.00;101091.80;3635115;80;98776;-92
2022/01/14 13:17:15;;;;;;;34.38;15.15;;;;;;;6.30;100.00;101087.83;3635861;79;98740;-92
2022/01/14 13:22:19;;;;;;;16.13;7.43;;;;;;;6.31;100.00;101096.27;3579342;80;99033;-92
2022/01/14 13:27:31;;;;;;;13.78;5.67;;;;;;;6.31;100.00;101086.14;3605687;81;98819;-90
2022/01/14 13:32:36;;;;;;;8.28;3.80;;;;;;;6.34;100.00;101091.52;3586175;80;98411;-91
2022/01/14 13:37:39;;;;;;;8.70;3.90;;;;;;;6.35;100.00;101092.55;3603296;80;98581;-93
2022/01/14 13:42:48;;;;;;;13.55;5.87;;;;;;;6.38;100.00;101095.19;3578678;80;98933;-93
2022/01/14 13:48:09;;;;;;;10.53;3.45;;;;;;;6.39;100.00;101103.03;3605930;81;99226;-93
2022/01/14 13:53:15;;;;;;;15.60;4.50;;;;;;;6.41;100.00;101106.81;3599061;80;98901;-92
2022/01/14 13:58:24;;;;;;;8.20;3.15;;;;;;;6.44;100.00;101106.94;3600318;81;98974;-91
2022/01/14 14:03:45;;;;;;;8.73;2.90;;;;;;;6.46;100.00;101121.09;3609664;80;98663;-91
2022/01/14 14:09:03;;;;;;;7.83;2.77;;;;;;;6.48;100.00;101148.90;3597291;80;98928;-91
2022/01/14 14:19:28;;;;;;;8.10;2.70;;;;;;;6.58;100.00;101150.44;3555404;80;98726;-92
2022/01/14 14:24:29;;;;;;;8.33;3.00;;;;;;;6.59;100.00;101139.72;3610421;80;99069;-92
2022/01/14 14:29:30;;;;;;;11.03;3.60;;;;;;;6.59;100.00;101157.50;3593641;80;99294;-90
2022/01/14 14:34:30;;;;;;;7.70;2.73;;;;;;;6.59;100.00;101155.58;3603457;80;98845;-92
2022/01/14 14:39:31;;;;;;;8.60;2.80;;;;;;;6.61;100.00;101171.08;3593672;80;98750;-91
2022/01/14 14:44:32;;;;;;;9.80;3.30;;;;;;;6.60;100.00;101165.37;3611552;80;26013;-87
2022/01/14 14:49:35;;;;;;;5.93;2.67;;;;;;;6.60;100.00;101172.80;3599335;80;98582;-89
2022/01/14 14:54:37;;;;;;;9.10;3.40;;;;;;;6.58;100.00;101173.68;3611196;80;98558;-89
2022/01/14 14:59:39;;;;;;;13.00;4.27;;;;;;;6.54;100.00;101178.23;3584072;80;98758;-87
2022/01/14 15:04:42;;;;;;;17.62;6.62;;;;;;;6.53;100.00;101193.02;3617762;80;99265;-87
2022/01/14 15:09:43;;;;;;;11.85;4.62;;;;;;;6.49;100.00;101207.14;3602777;80;99298;-89
2022/01/14 15:14:46;;;;;;;11.93;4.13;;;;;;;6.45;100.00;101227.51;3589462;80;26104;-89
2022/01/14 15:19:46;;;;;;;13.80;4.23;;;;;;;6.38;100.00;101248.29;3612786;79;98857;-89
2022/01/14 15:24:48;;;;;;;15.17;4.40;;;;;;;6.35;100.00;101254.41;3639813;80;98647;-90
2022/01/14 15:29:49;;;;;;;16.40;5.73;;;;;;;6.31;100.00;101253.45;3653564;79;98799;-88
2022/01/14 15:34:50;;;;;;;16.47;4.83;;;;;;;6.22;100.00;101258.95;3634706;80;98858;-88
2022/01/14 15:39:52;;;;;;;8.73;3.07;;;;;;;6.16;100.00;101267.68;3628643;80;98877;-88
2022/01/14 15:44:52;;;;;;;12.10;4.43;;;;;;;6.08;100.00;101284.34;3638313;80;25887;-92
2022/01/14 15:49:53;;;;;;;17.13;5.70;;;;;;;6.00;100.00;101284.37;3629795;80;98950;-90
2022/01/14 15:54:54;;;;;;;13.67;3.97;;;;;;;5.87;100.00;101305.28;3658301;79;99095;-91
2022/01/14 15:59:55;;;;;;;13.38;4.45;;;;;;;5.74;100.00;101311.67;3632471;80;99390;-91
2022/01/14 16:04:56;;;;;;;17.23;5.30;;;;;;;5.60;100.00;101317.89;3631438;80;98782;-91
2022/01/14 16:09:59;;;;;;;13.30;3.20;;;;;;;5.45;99.15;101321.10;3632713;79;98828;-92
2022/01/14 16:15:00;;;;;;;17.27;4.00;;;;;;;5.30;99.97;101318.84;3634454;79;26355;-89
2022/01/14 16:20:03;;;;;;;14.07;4.07;;;;;;;5.21;99.08;101329.52;3636588;79;98795;-88
2022/01/14 16:25:04;;;;;;;12.93;3.87;;;;;;;5.12;99.35;101353.27;3544950;81;98591;-90
2022/01/14 16:30:09;;;;;;;16.93;5.00;;;;;;;5.03;99.19;101360.05;3605444;80;98751;-93
2022/01/14 16:35:12;;;;;;;14.93;3.60;;;;;;;4.94;98.75;101364.70;3612595;80;98739;-90
2022/01/14 16:40:14;;;;;;;12.93;4.08;;;;;;;4.84;98.87;101374.52;3539685;81;98763;-93
2022/01/14 16:45:15;;;;;;;17.23;3.70;;;;;;;4.75;98.90;101369.59;3599584;80;98725;-93
2022/01/14 16:50:18;;;;;;;12.10;3.33;;;;;;;4.68;99.33;101380.70;3592753;80;98807;-92
2022/01/14 16:55:19;;;;;;;35.50;17.80;;;;;;;4.61;99.39;101380.36;3611181;80;98440;-90
2022/01/14 17:00:21;;;;;;;18.67;7.13;;;;;;;4.53;99.54;101389.31;3589286;80;98919;-92
2022/01/14 17:05:22;;;;;;;20.88;4.35;;;;;;;4.46;99.33;101390.30;3606626;80;98782;-90
2022/01/14 17:10:30;;;;;;;17.57;5.37;;;;;;;4.40;99.43;101398.37;3596962;80;98739;-92
2022/01/14 17:15:30;;;;;;;17.50;5.10;;;;;;;4.34;99.49;101407.80;3614197;80;99163;-91
2022/01/14 17:20:31;;;;;;;16.23;4.93;;;;;;;4.26;99.46;101416.16;3609117;80;98647;-90
2022/01/14 17:25:32;;;;;;;19.97;4.50;;;;;;;4.18;99.62;101429.73;3610854;80;98527;-91
2022/01/14 17:30:34;;;;;;;19.03;5.43;;;;;;;4.10;99.78;101437.30;3602156;80;98565;-91
2022/01/14 17:35:38;;;;;;;17.30;4.53;;;;;;;4.03;99.84;101446.44;3587158;80;98651;-94
2022/01/14 17:40:39;;;;;;;16.00;5.55;;;;;;;3.94;99.93;101442.85;3608393;80;98712;-90
2022/01/14 17:45:41;;;;;;;18.47;5.17;;;;;;;3.85;100.00;101459.12;3601878;80;98720;-90
2022/01/14 17:50:43;;;;;;;19.13;6.27;;;;;;;3.68;100.00;101467.69;3605135;80;98986;-92
2022/01/14 17:55:44;;;;;;;19.95;5.40;;;;;;;3.68;100.00;101467.69;3615265;80;98764;-91
2022/01/14 18:00:45;;;;;;;19.53;5.07;;;;;;;3.60;100.00;101483.39;3603166;80;98713;-91
2022/01/14 18:05:46;;;;;;;18.50;5.13;;;;;;;3.55;100.00;101486.22;3607269;80;99024;-92
2022/01/14 18:10:47;;;;;;;17.90;6.30;;;;;;;3.47;100.00;101499.16;3589070;80;98925;-91
2022/01/14 18:15:49;;;;;;;18.62;5.65;;;;;;;3.39;100.00;101505.33;3607009;80;98026;-89
2022/01/14 18:20:49;;;;;;;23.63;7.43;;;;;;;3.32;100.00;101492.66;3597138;80;98789;-90
2022/01/14 18:25:50;;;;;;;40.73;14.43;;;;;;;3.26;100.00;101496.05;3590125;80;98640;-93
2022/01/14 18:30:56;;;;;;;42.23;14.10;;;;;;;3.21;100.00;101499.41;3584414;81;99088;-92
2022/01/14 18:35:57;;;;;;;25.43;8.00;;;;;;;3.17;100.00;101503.30;3582800;80;99019;-89
2022/01/14 18:40:58;;;;;;;22.00;5.87;;;;;;;3.14;100.00;101504.45;3580747;80;99036;-90
2022/01/14 18:46:05;;;;;;;18.87;7.27;;;;;;;3.08;100.00;101501.58;3570596;80;99194;-91
2022/01/14 18:51:03;;;;;;;18.92;5.17;;;;;;;3.02;100.00;101504.97;3579325;81;98930;-93
2022/01/14 18:56:04;;;;;;;17.10;5.23;;;;;;;2.99;100.00;101518.33;3592145;80;98488;-92
2022/01/14 19:01:05;;;;;;;22.10;4.03;;;;;;;2.94;100.00;101521.96;3573199;80;99168;-93
2022/01/14 19:06:06;;;;;;;16.87;3.97;;;;;;;2.90;100.00;101522.30;3579895;80;98015;-89
2022/01/14 19:11:07;;;;;;;22.73;6.20;;;;;;;2.84;100.00;101533.02;3585180;80;98879;-95
2022/01/14 19:16:08;;;;;;;19.20;5.73;;;;;;;2.82;100.00;101544.75;3582977;80;98806;-91
2022/01/14 19:21:09;;;;;;;19.20;6.60;;;;;;;2.77;100.00;101536.68;3588149;80;98500;-93
2022/01/14 19:26:11;;;;;;;19.07;5.33;;;;;;;2.74;100.00;101548.13;3602320;80;98943;-91
2022/01/14 19:31:12;;;;;;;14.50;3.87;;;;;;;2.70;100.00;101549.03;3514330;82;99126;-92
2022/01/14 19:36:14;;;;;;;18.53;5.70;;;;;;;2.66;100.00;101553.45;3609150;81;99214;-92
2022/01/14 19:41:15;;;;;;;20.03;4.73;;;;;;;2.62;100.00;101561.96;3595616;80;98928;-93
2022/01/14 19:46:18;;;;;;;17.57;5.50;;;;;;;2.58;100.00;101572.59;3609813;80;98851;-92
2022/01/14 19:51:19;;;;;;;25.57;6.63;;;;;;;2.53;100.00;101576.77;3601082;80;98906;-90
2022/01/14 19:56:20;;;;;;;27.50;9.63;;;;;;;2.50;100.00;101591.47;3611868;80;25802;-91
2022/01/14 20:01:23;;;;;;;21.07;6.57;;;;;;;2.46;100.00;101592.62;3615723;80;99028;-94
2022/01/14 20:06:24;;;;;;;14.35;5.20;;;;;;;2.41;100.00;101600.84;3609179;81;98915;-92
2022/01/14 20:11:30;;;;;;;22.37;7.20;;;;;;;2.37;100.00;101612.06;3523043;82;99075;-92
2022/01/14 20:16:31;;;;;;;17.07;5.20;;;;;;;2.32;100.00;101614.85;3587307;80;98838;-93
2022/01/14 20:21:31;;;;;;;15.10;5.10;;;;;;;2.28;100.00;101617.06;3595248;80;99160;-93
2022/01/14 20:26:33;;;;;;;22.70;5.27;;;;;;;2.23;100.00;101611.70;3650793;79;26205;-94
2022/01/14 20:31:34;;;;;;;28.63;6.03;;;;;;;2.17;100.00;101612.87;3630702;79;98375;-90
2022/01/14 20:36:37;;;;;;;20.07;6.17;;;;;;;2.12;100.00;101608.88;3651987;80;98683;-94
2022/01/14 20:41:45;;;;;;;24.87;5.92;;;;;;;2.08;100.00;101619.52;3618486;80;98757;-92
2022/01/14 20:46:41;;;;;;;19.57;5.72;;;;;;;2.05;100.00;101636.41;3614876;80;98825;-95
2022/01/14 20:51:43;;;;;;;23.20;5.70;;;;;;;2.00;100.00;101632.93;3614898;79;98926;-94
2022/01/14 20:56:44;;;;;;;25.95;7.92;;;;;;;1.95;100.00;101637.06;3636905;79;32255;-94
2022/01/14 21:01:45;;;;;;;22.47;6.80;;;;;;;1.91;100.00;101642.27;3633425;79;98765;-92
2022/01/14 21:06:46;;;;;;;30.68;6.45;;;;;;;1.87;100.00;101643.15;3639088;79;98745;-95
2022/01/14 21:11:48;;;;;;;22.10;6.27;;;;;;;1.83;100.00;101655.67;3628400;80;98792;-93
2022/01/14 21:16:49;;;;;;;22.07;5.67;;;;;;;1.78;100.00;101655.19;3635130;80;98848;-91
2022/01/14 21:21:49;;;;;;;16.37;4.30;;;;;;;1.72;100.00;101658.24;3633319;79;98900;-92
2022/01/14 21:27:00;;;;;;;20.93;6.40;;;;;;;1.66;100.00;101656.15;3603522;80;27779;-93
2022/01/14 21:32:02;;;;;;;26.12;5.95;;;;;;;1.65;100.00;101659.14;3485066;83;98749;-94
2022/01/14 21:37:03;;;;;;;17.10;5.50;;;;;;;1.58;100.00;101662.75;3605293;80;98733;-94
2022/01/14 21:42:05;;;;;;;18.05;4.33;;;;;;;1.52;100.00;101661.98;3600591;80;99201;-93
2022/01/14 21:47:07;;;;;;;18.98;4.60;;;;;;;1.47;100.00;101663.39;3595890;80;98840;-93
2022/01/14 21:52:08;;;;;;;22.20;5.95;;;;;;;1.42;100.00;101672.93;3600745;80;98855;-92
2022/01/14 21:57:09;;;;;;;22.27;5.42;;;;;;;1.36;100.00;101669.19;3604619;80;32462;-91
2022/01/14 22:02:10;;;;;;;21.77;5.90;;;;;;;1.29;100.00;101670.08;3607513;80;99075;-91
2022/01/14 22:07:11;;;;;;;22.23;6.83;;;;;;;1.24;100.00;101661.98;3595973;80;98741;-89
2022/01/14 22:12:16;;;;;;;23.23;5.00;;;;;;;1.21;100.00;101674.77;3604993;80;99020;-89
2022/01/14 22:17:17;;;;;;;24.32;6.17;;;;;;;1.13;100.00;101670.77;3595759;80;98948;-92
2022/01/14 22:22:18;;;;;;;30.30;8.13;;;;;;;1.07;100.00;101680.57;3599667;80;99236;-91
2022/01/14 22:27:19;;;;;;;18.93;7.07;;;;;;;1.01;100.00;101670.33;3619171;80;98927;-91
2022/01/14 22:32:20;;;;;;;22.30;6.33;;;;;;;0.97;100.00;101660.31;3597921;80;98445;-91
2022/01/14 22:37:21;;;;;;;20.90;5.67;;;;;;;0.91;100.00;101666.88;3610758;80;99153;-91
2022/01/14 22:42:22;;;;;;;22.30;5.47;;;;;;;0.86;100.00;101660.14;3623097;80;98904;-91
2022/01/14 22:47:23;;;;;;;22.83;6.53;;;;;;;0.80;100.00;101663.98;3619258;80;98881;-91
2022/01/14 22:52:24;;;;;;;20.15;6.12;;;;;;;0.76;100.00;101662.38;3612852;80;98816;-91
2022/01/14 22:57:27;;;;;;;24.27;7.50;;;;;;;0.72;100.00;101665.95;3615821;81;98271;-96
2022/01/14 23:03:21;;;;;;;;;;;;;;;;;;;;;
2022/01/14 23:08:35;;;;;;;25.97;7.97;;;;;;;0.60;100.00;101661.43;3451064;85;32754;-96
2022/01/14 23:13:36;;;;;;;20.85;5.12;;;;;;;0.53;100.00;101650.08;3507518;81;98650;-84
2022/01/14 23:18:38;;;;;;;18.27;5.67;;;;;;;0.48;100.00;101649.58;3490741;83;98910;-83
2022/01/14 23:23:39;;;;;;;19.25;5.17;;;;;;;0.43;100.00;101647.43;3489931;83;98929;-84
2022/01/14 23:28:40;;;;;;;19.60;4.27;;;;;;;0.38;100.00;101649.63;3488189;82;98934;-83
2022/01/14 23:33:41;;;;;;;24.43;5.20;;;;;;;0.33;100.00;101656.43;3496143;82;26037;-84
2022/01/14 23:38:42;;;;;;;20.60;6.50;;;;;;;0.28;100.00;101659.16;3479062;82;98875;-84
2022/01/14 23:48:57;;;;;;;40.80;11.63;;;;;;;0.20;100.00;101683.30;3490494;83;99139;-84
2022/01/14 23:53:58;;;;;;;35.60;10.83;;;;;;;0.15;100.00;101681.44;3488613;82;99083;-83